Time;durP1;ratioP1;P1;durP2;ratioP2;P2;SDS_P1;SDS_P2;PMS_P1;PMS_P2;Temp;Humidity;BMP_temperature;BMP_pressure;BME280_temperature;BME280_humidity;BME280_pressure;Samples;Min_cycle;Max_cycle;Signal;HPM_P1;HPM_P2
2022/10/07 00:00:57;;;;;;;27.30;12.33;;;;;;;7.85;100.00;101340.25;4164609;28;20245;-61
2022/10/07 00:03:25;;;;;;;26.43;12.93;;;;;;;7.74;100.00;101348.06;4181390;28;20836;-63
2022/10/07 00:06:05;;;;;;;34.60;13.50;;;;;;;7.72;100.00;101352.63;4192631;28;21154;-62
2022/10/07 00:08:34;;;;;;;28.73;13.40;;;;;;;7.77;100.00;101348.72;4176053;28;20242;-62
2022/10/07 00:11:09;;;;;;;29.87;14.10;;;;;;;7.72;100.00;101347.31;4177343;28;20278;-65
2022/10/07 00:13:37;;;;;;;28.03;12.60;;;;;;;7.83;100.00;101348.28;4176612;28;23171;-42
2022/10/07 00:16:07;;;;;;;29.97;14.57;;;;;;;7.90;100.00;101354.00;4175877;28;20290;-50
2022/10/07 00:18:35;;;;;;;29.03;13.10;;;;;;;7.93;100.00;101343.19;4181091;28;20234;-41
2022/10/07 00:21:10;;;;;;;30.60;13.00;;;;;;;7.97;100.00;101344.69;4169649;28;20240;-68
2022/10/07 00:23:38;;;;;;;27.23;14.00;;;;;;;7.91;100.00;101344.25;4176559;28;20239;-66
2022/10/07 00:26:06;;;;;;;27.90;11.77;;;;;;;7.85;100.00;101337.59;4177456;28;20317;-66
2022/10/07 00:28:34;;;;;;;27.80;12.60;;;;;;;7.83;100.00;101347.44;4160749;28;20294;-65
2022/10/07 00:31:04;;;;;;;30.17;13.40;;;;;;;7.76;100.00;101338.22;4167711;28;20234;-68
2022/10/07 00:33:34;;;;;;;24.53;13.30;;;;;;;7.75;100.00;101345.31;4175732;28;20463;-66
2022/10/07 00:36:00;;;;;;;28.20;14.47;;;;;;;7.74;100.00;101340.13;4175880;28;20255;-67
2022/10/07 00:38:27;;;;;;;26.80;13.37;;;;;;;7.64;100.00;101339.91;4163568;28;20250;-66
2022/10/07 00:40:53;;;;;;;31.93;13.63;;;;;;;7.57;100.00;101342.09;4159239;28;23031;-68
2022/10/07 00:43:25;;;;;;;27.40;13.83;;;;;;;7.54;100.00;101337.03;4171812;28;20243;-67
2022/10/07 00:45:54;;;;;;;26.17;13.07;;;;;;;7.61;100.00;101332.16;4143202;28;20321;-67
2022/10/07 00:48:29;;;;;;;28.40;13.40;;;;;;;7.53;100.00;101335.31;4172573;28;20337;-67
2022/10/07 00:50:58;;;;;;;28.07;13.47;;;;;;;7.53;100.00;101337.97;4155467;28;20377;-67
2022/10/07 00:53:26;;;;;;;32.13;13.00;;;;;;;7.57;100.00;101336.81;4165043;28;20242;-66
2022/10/07 00:55:56;;;;;;;26.50;13.30;;;;;;;7.71;100.00;101341.16;4161310;28;20243;-66
2022/10/07 00:58:23;;;;;;;28.57;13.30;;;;;;;7.60;100.00;101339.25;4163283;28;20246;-69
2022/10/07 01:00:49;;;;;;;29.53;13.50;;;;;;;7.50;100.00;101335.53;4156812;28;20452;-71
2022/10/07 01:03:16;;;;;;;32.87;13.03;;;;;;;7.51;100.00;101336.38;4167814;28;20250;-69
2022/10/07 01:05:42;;;;;;;25.30;11.63;;;;;;;7.54;100.00;101337.03;4168148;28;22228;-69
2022/10/07 01:08:09;;;;;;;32.17;13.33;;;;;;;7.51;100.00;101345.16;4155129;28;20325;-70
2022/10/07 01:10:49;;;;;;;30.03;13.57;;;;;;;7.44;100.00;101335.09;4166013;28;20330;-68
2022/10/07 01:13:31;;;;;;;28.70;12.37;;;;;;;7.44;100.00;101330.63;4176938;28;20338;-68
2022/10/07 01:16:09;;;;;;;27.80;12.90;;;;;;;7.36;100.00;101328.50;4162746;28;23636;-68
2022/10/07 01:18:44;;;;;;;31.83;13.37;;;;;;;7.40;100.00;101322.06;4157292;28;20234;-69
2022/10/07 01:21:48;;;;;;;27.60;14.43;;;;;;;7.37;100.00;101324.03;4174810;28;20313;-67
2022/10/07 01:24:33;;;;;;;32.97;13.93;;;;;;;7.37;100.00;101327.56;4182196;28;20241;-67
2022/10/07 01:27:05;;;;;;;31.10;13.13;;;;;;;7.44;100.00;101322.69;4164217;28;22213;-69
2022/10/07 01:29:37;;;;;;;30.27;11.93;;;;;;;7.42;100.00;101324.56;4157134;28;20335;-69
2022/10/07 01:32:19;;;;;;;26.97;13.20;;;;;;;7.38;100.00;101326.59;4155214;28;21886;-68
2022/10/07 01:34:46;;;;;;;31.57;13.20;;;;;;;7.41;100.00;101328.19;4143975;28;22939;-69
2022/10/07 01:37:15;;;;;;;28.57;12.23;;;;;;;7.43;100.00;101334.25;4158014;28;20412;-68
2022/10/07 01:39:47;;;;;;;23.87;10.73;;;;;;;7.48;100.00;101340.06;4166457;28;20229;-69
2022/10/07 01:42:14;;;;;;;22.17;12.33;;;;;;;7.46;100.00;101328.72;4173497;28;20353;-71
2022/10/07 01:44:43;;;;;;;24.73;11.73;;;;;;;7.39;100.00;101328.28;4152891;28;20408;-67
2022/10/07 01:47:09;;;;;;;24.13;11.37;;;;;;;7.43;100.00;101328.09;4164846;28;20322;-68
2022/10/07 01:49:36;;;;;;;27.20;11.33;;;;;;;7.41;100.00;101330.84;4157191;28;20509;-68
2022/10/07 01:52:07;;;;;;;28.00;12.47;;;;;;;7.45;100.00;101334.16;4139875;28;20258;-68
2022/10/07 01:54:52;;;;;;;29.27;11.83;;;;;;;7.42;100.00;101329.03;4155209;28;20413;-68
2022/10/07 01:57:36;;;;;;;25.00;11.57;;;;;;;7.38;100.00;101336.34;4142717;29;21068;-69
2022/10/07 02:00:04;;;;;;;22.40;11.50;;;;;;;7.32;100.00;101328.81;4158573;28;21430;-69
2022/10/07 02:02:49;;;;;;;26.27;11.40;;;;;;;7.34;100.00;101329.56;4146404;28;22406;-67
2022/10/07 02:05:51;;;;;;;24.80;11.43;;;;;;;7.34;100.00;101326.91;4154929;28;22595;-70
2022/10/07 02:08:32;;;;;;;20.33;10.53;;;;;;;7.30;100.00;101325.41;4162534;28;21788;-66
2022/10/07 02:11:15;;;;;;;25.77;11.70;;;;;;;7.22;100.00;101327.72;4141018;28;20314;-67
2022/10/07 02:13:53;;;;;;;30.37;12.30;;;;;;;7.24;100.00;101333.78;4144312;28;22867;-68
2022/10/07 02:16:39;;;;;;;24.83;11.43;;;;;;;7.31;100.00;101335.06;4138875;28;20884;-68
2022/10/07 02:19:15;;;;;;;35.23;11.37;;;;;;;7.31;100.00;101335.06;4153275;28;20653;-67
2022/10/07 02:21:42;;;;;;;27.50;12.20;;;;;;;7.29;100.00;101331.66;4138390;29;20585;-67
2022/10/07 02:24:10;;;;;;;24.80;11.00;;;;;;;7.30;100.00;101333.34;4144635;28;20239;-70
2022/10/07 02:26:37;;;;;;;24.60;11.10;;;;;;;7.29;100.00;101331.66;4145146;28;20239;-67
2022/10/07 02:29:04;;;;;;;26.47;11.50;;;;;;;7.26;100.00;101327.44;4145875;28;20405;-69
2022/10/07 02:31:32;;;;;;;20.00;9.60;;;;;;;7.31;100.00;101325.31;4148224;28;20244;-71
2022/10/07 02:33:59;;;;;;;25.70;11.33;;;;;;;7.28;100.00;101327.31;4141833;29;20240;-68
2022/10/07 02:36:33;;;;;;;25.00;11.00;;;;;;;7.24;100.00;101328.47;4147632;28;20235;-70
2022/10/07 02:39:00;;;;;;;19.37;10.13;;;;;;;7.27;100.00;101320.31;4152908;29;20309;-70
2022/10/07 02:41:35;;;;;;;21.67;11.03;;;;;;;7.28;100.00;101324.66;4144060;28;21793;-69
2022/10/07 02:44:24;;;;;;;26.33;10.90;;;;;;;7.33;100.00;101326.06;4144694;28;20348;-69
2022/10/07 02:47:02;;;;;;;25.90;10.73;;;;;;;7.25;100.00;101325.72;4150768;28;20343;-68
2022/10/07 02:49:32;;;;;;;22.87;9.90;;;;;;;7.29;100.00;101326.38;4152411;29;20238;-70
2022/10/07 02:52:04;;;;;;;22.07;10.17;;;;;;;7.32;100.00;101324.34;4163653;28;20350;-67
2022/10/07 02:54:41;;;;;;;22.60;10.00;;;;;;;7.28;100.00;101325.53;4179627;28;20351;-67
2022/10/07 02:57:09;;;;;;;22.37;9.50;;;;;;;7.29;100.00;101326.38;4173242;28;22201;-68
2022/10/07 02:59:36;;;;;;;28.97;9.83;;;;;;;7.43;100.00;101323.66;4153673;28;20248;-68
2022/10/07 03:02:06;;;;;;;21.40;9.90;;;;;;;7.45;100.00;101321.75;4166931;28;20882;-67
2022/10/07 03:04:33;;;;;;;20.27;9.33;;;;;;;7.43;100.00;101322.81;4159570;28;20691;-68
2022/10/07 03:07:00;;;;;;;19.70;9.60;;;;;;;7.39;100.00;101323.00;4180913;28;21150;-68
2022/10/07 03:09:27;;;;;;;21.13;9.40;;;;;;;7.41;100.00;101325.53;4180087;28;21643;-70
2022/10/07 03:11:54;;;;;;;16.97;8.90;;;;;;;7.47;100.00;101324.28;4164197;28;20648;-67
2022/10/07 03:14:23;;;;;;;16.27;9.27;;;;;;;7.38;100.00;101317.81;4178463;28;20305;-68
2022/10/07 03:16:52;;;;;;;23.00;9.57;;;;;;;7.56;100.00;101319.22;4179116;28;20273;-69
2022/10/07 03:19:19;;;;;;;18.10;9.00;;;;;;;7.60;100.00;101325.16;4170416;28;20241;-67
2022/10/07 03:21:46;;;;;;;18.27;9.77;;;;;;;7.64;100.00;101326.66;4173861;28;22401;-68
2022/10/07 03:24:12;;;;;;;21.20;9.20;;;;;;;7.57;100.00;101322.72;4163605;29;20419;-71
2022/10/07 03:26:39;;;;;;;20.50;8.67;;;;;;;7.57;100.00;101320.06;4173319;28;22227;-69
2022/10/07 03:29:07;;;;;;;19.73;8.97;;;;;;;7.64;100.00;101321.34;4185505;28;20233;-73
2022/10/07 03:31:33;;;;;;;19.40;8.57;;;;;;;7.67;100.00;101321.13;4176156;28;20780;-68
2022/10/07 03:34:00;;;;;;;18.47;8.07;;;;;;;7.60;100.00;101320.69;4181838;28;21312;-68
2022/10/07 03:36:28;;;;;;;19.10;8.93;;;;;;;7.52;100.00;101325.69;4172240;28;20385;-68
2022/10/07 03:38:55;;;;;;;24.10;8.80;;;;;;;7.48;100.00;101321.53;4165803;28;20236;-68
2022/10/07 03:41:21;;;;;;;19.23;8.20;;;;;;;7.63;100.00;101316.16;4160021;28;20320;-70
2022/10/07 03:43:48;;;;;;;20.50;8.70;;;;;;;7.64;100.00;101315.22;4168321;28;20234;-69
2022/10/07 03:46:15;;;;;;;24.73;9.43;;;;;;;7.65;100.00;101311.59;4184926;28;20244;-67
2022/10/07 03:48:42;;;;;;;21.30;8.43;;;;;;;7.70;100.00;101314.78;4178653;28;20247;-69
2022/10/07 03:51:08;;;;;;;16.50;8.20;;;;;;;7.60;100.00;101310.09;4159467;28;20237;-69
2022/10/07 03:53:37;;;;;;;16.23;8.10;;;;;;;7.54;100.00;101310.53;4179746;28;21683;-68
2022/10/07 03:56:06;;;;;;;21.73;8.10;;;;;;;7.60;100.00;101307.44;4171847;28;20473;-68
2022/10/07 03:58:32;;;;;;;20.77;8.97;;;;;;;7.64;100.00;101304.63;4187967;28;20524;-68
2022/10/07 04:01:07;;;;;;;15.47;8.00;;;;;;;7.70;100.00;101306.81;4166666;28;20244;-68
2022/10/07 04:03:34;;;;;;;19.87;9.17;;;;;;;7.64;100.00;101302.81;4164350;28;20442;-68
2022/10/07 04:06:02;;;;;;;21.40;9.23;;;;;;;7.73;100.00;101304.00;4153075;28;20620;-69
2022/10/07 04:08:31;;;;;;;23.17;8.93;;;;;;;7.65;100.00;101295.69;4166494;28;20337;-69
2022/10/07 04:10:59;;;;;;;18.63;7.90;;;;;;;7.57;100.00;101297.06;4174339;28;22435;-68
2022/10/07 04:13:25;;;;;;;18.63;8.20;;;;;;;7.65;100.00;101304.50;4177017;28;20523;-69
2022/10/07 04:15:52;;;;;;;18.40;8.10;;;;;;;7.61;100.00;101301.22;4167538;28;20248;-68
2022/10/07 04:18:19;;;;;;;22.83;8.17;;;;;;;7.46;100.00;101293.47;4157115;28;20243;-68
2022/10/07 04:20:45;;;;;;;18.67;8.33;;;;;;;7.57;100.00;101297.06;4163662;28;20246;-68
2022/10/07 04:23:12;;;;;;;16.53;8.80;;;;;;;7.53;100.00;101298.22;4165211;28;20245;-69
2022/10/07 04:25:45;;;;;;;18.53;8.50;;;;;;;7.53;100.00;101292.94;4142012;28;20237;-68
2022/10/07 04:28:20;;;;;;;20.17;8.20;;;;;;;7.47;100.00;101287.19;4184410;28;21979;-68
2022/10/07 04:30:50;;;;;;;20.03;7.73;;;;;;;7.47;100.00;101282.78;4170986;28;20374;-67
2022/10/07 04:33:18;;;;;;;25.30;9.27;;;;;;;7.36;100.00;101288.78;4169782;28;22770;-69
2022/10/07 04:35:44;;;;;;;17.90;7.93;;;;;;;7.32;100.00;101286.44;4176618;28;20412;-68
2022/10/07 04:38:12;;;;;;;27.43;10.73;;;;;;;7.42;100.00;101290.16;4184594;28;20305;-68
2022/10/07 04:40:40;;;;;;;24.20;10.73;;;;;;;7.25;100.00;101290.44;4168003;28;20371;-67
2022/10/07 04:43:25;;;;;;;44.03;20.27;;;;;;;7.20;100.00;101280.16;4179804;28;20239;-67
2022/10/07 04:45:54;;;;;;;28.87;10.90;;;;;;;7.21;100.00;101284.53;4179130;28;22879;-69
2022/10/07 04:48:22;;;;;;;60.10;25.00;;;;;;;7.17;100.00;101281.22;4170356;28;21176;-67
2022/10/07 04:50:51;;;;;;;36.50;12.73;;;;;;;7.11;100.00;101280.78;4167783;28;21665;-68
2022/10/07 04:53:18;;;;;;;23.77;9.40;;;;;;;7.11;100.00;101278.97;4168782;28;20717;-69
2022/10/07 04:55:47;;;;;;;21.27;8.53;;;;;;;7.16;100.00;101276.03;4170552;28;20277;-69
2022/10/07 04:58:15;;;;;;;24.27;8.90;;;;;;;7.27;100.00;101284.09;4180393;28;21061;-68
2022/10/07 05:00:47;;;;;;;25.37;9.20;;;;;;;7.29;100.00;101279.56;4233826;28;22040;-68
2022/10/07 05:03:16;;;;;;;27.17;8.57;;;;;;;7.34;100.00;101277.44;4235565;28;20294;-68
2022/10/07 05:05:45;;;;;;;24.37;9.20;;;;;;;7.28;100.00;101271.72;4228018;28;20649;-69
2022/10/07 05:08:13;;;;;;;26.50;8.83;;;;;;;7.55;100.00;101271.66;4221290;28;20279;-71
2022/10/07 05:10:41;;;;;;;20.60;8.47;;;;;;;7.38;100.00;101272.81;4188949;28;20842;-69
2022/10/07 05:13:13;;;;;;;19.13;8.43;;;;;;;7.41;100.00;101277.88;4205343;28;21118;-70
2022/10/07 05:15:53;;;;;;;18.77;7.73;;;;;;;7.40;100.00;101276.19;4195732;28;20297;-67
2022/10/07 05:18:21;;;;;;;20.43;9.07;;;;;;;7.32;100.00;101268.75;4204164;28;20316;-67
2022/10/07 05:20:48;;;;;;;24.43;8.90;;;;;;;7.34;100.00;101268.66;4209027;28;21992;-68
2022/10/07 05:23:17;;;;;;;24.83;7.97;;;;;;;7.45;100.00;101267.94;4184644;28;20426;-67
2022/10/07 05:25:44;;;;;;;33.13;9.33;;;;;;;7.57;100.00;101273.25;4179753;28;21749;-69
2022/10/07 05:28:13;;;;;;;18.00;7.93;;;;;;;7.63;100.00;101277.25;4183881;28;20994;-68
2022/10/07 05:30:40;;;;;;;22.40;8.33;;;;;;;7.62;100.00;101278.22;4196007;28;20238;-67
2022/10/07 05:33:08;;;;;;;22.53;8.73;;;;;;;7.65;100.00;101274.50;4178133;28;20646;-69
2022/10/07 05:35:35;;;;;;;23.57;8.33;;;;;;;7.70;100.00;101275.91;4158547;28;21525;-69
2022/10/07 05:38:02;;;;;;;21.97;7.57;;;;;;;7.71;100.00;101274.09;4176813;28;21730;-68
2022/10/07 05:40:30;;;;;;;27.57;11.97;;;;;;;7.76;100.00;101277.28;4182478;28;20305;-67
2022/10/07 05:42:57;;;;;;;19.53;7.83;;;;;;;7.85;100.00;101287.25;4183942;28;20249;-67
2022/10/07 05:45:24;;;;;;;22.73;9.50;;;;;;;7.94;100.00;101285.75;4185592;28;20240;-65
2022/10/07 05:47:51;;;;;;;31.60;12.87;;;;;;;7.94;100.00;101291.91;4183167;28;20254;-67
2022/10/07 05:50:17;;;;;;;26.00;10.90;;;;;;;7.96;100.00;101279.41;4196008;28;21107;-63
2022/10/07 05:52:44;;;;;;;25.20;8.23;;;;;;;8.01;100.00;101282.56;4177875;28;21150;-68
2022/10/07 05:55:11;;;;;;;19.50;8.80;;;;;;;8.15;99.54;101288.72;4157980;28;20651;-70
2022/10/07 05:57:38;;;;;;;14.53;7.70;;;;;;;8.30;98.13;101287.59;4166079;28;20265;-64
2022/10/07 06:00:06;;;;;;;19.07;8.30;;;;;;;8.37;97.02;101285.38;4168870;28;20232;-66
2022/10/07 06:02:32;;;;;;;24.20;8.27;;;;;;;8.28;97.38;101283.38;4171710;28;26566;-64
2022/10/07 06:05:00;;;;;;;20.63;7.57;;;;;;;8.24;98.27;101288.91;4171122;28;20239;-62
2022/10/07 06:07:28;;;;;;;20.30;8.23;;;;;;;8.38;97.70;101295.00;4164852;28;20234;-67
2022/10/07 06:15:25;;;;;;;23.33;8.33;;;;;;;8.48;96.52;101301.41;4180438;28;20379;-65
2022/10/07 06:17:52;;;;;;;25.77;8.23;;;;;;;8.48;97.11;101300.56;4150679;29;20254;-65
2022/10/07 06:20:19;;;;;;;24.30;8.23;;;;;;;8.45;97.34;101305.13;4183139;28;20486;-64
2022/10/07 06:22:45;;;;;;;22.47;7.73;;;;;;;8.51;97.15;101310.94;4176766;28;27080;-65
2022/10/07 06:25:12;;;;;;;23.67;8.57;;;;;;;8.62;96.83;101305.72;4155097;28;20236;-64
2022/10/07 06:27:39;;;;;;;22.03;7.77;;;;;;;8.69;96.80;101312.25;4186324;28;20322;-63
2022/10/07 06:30:06;;;;;;;26.43;9.87;;;;;;;8.69;96.08;101309.63;4178436;28;20362;-66
2022/10/07 06:32:33;;;;;;;26.83;9.33;;;;;;;8.88;95.04;101309.97;4161746;28;20244;-67
2022/10/07 06:35:00;;;;;;;29.43;8.73;;;;;;;8.90;95.18;101308.97;4203565;28;23002;-68
2022/10/07 06:37:30;;;;;;;24.43;9.10;;;;;;;8.97;94.88;101307.59;4229908;28;20738;-68
2022/10/07 06:39:57;;;;;;;25.37;8.00;;;;;;;9.14;93.64;101309.00;4154444;28;21133;-68
2022/10/07 06:42:25;;;;;;;27.90;8.47;;;;;;;9.19;92.67;101306.84;4170305;28;20238;-64
2022/10/07 06:44:52;;;;;;;23.57;7.33;;;;;;;9.33;91.82;101309.31;4214344;28;20232;-69
2022/10/07 06:47:22;;;;;;;17.70;6.60;;;;;;;9.43;92.05;101314.78;4195053;28;21745;-67
2022/10/07 06:49:48;;;;;;;19.83;7.47;;;;;;;9.46;91.29;101312.75;4222642;28;20286;-67
2022/10/07 06:52:15;;;;;;;29.57;8.03;;;;;;;9.57;91.81;101311.91;4192264;29;20260;-67
2022/10/07 06:54:42;;;;;;;18.47;7.27;;;;;;;9.72;90.44;101320.53;4179222;28;20650;-66
2022/10/07 06:57:09;;;;;;;25.20;8.37;;;;;;;9.87;89.12;101314.03;4217698;28;20310;-69
2022/10/07 06:59:55;;;;;;;24.73;8.17;;;;;;;9.94;89.43;101314.41;4185731;28;20238;-70
2022/10/07 07:02:24;;;;;;;32.90;7.73;;;;;;;9.98;89.03;101318.53;4202279;28;21181;-67
2022/10/07 07:04:51;;;;;;;29.77;7.60;;;;;;;10.14;88.00;101316.34;4158898;29;20237;-67
2022/10/07 07:07:23;;;;;;;26.47;7.83;;;;;;;10.28;88.57;101323.28;4193671;28;20247;-64
2022/10/07 07:09:50;;;;;;;22.77;7.40;;;;;;;10.53;87.42;101316.00;4212851;28;20341;-66
2022/10/07 07:12:17;;;;;;;25.30;7.13;;;;;;;10.62;86.45;101319.75;4192225;28;20233;-66
2022/10/07 07:14:44;;;;;;;20.93;6.67;;;;;;;10.80;86.12;101320.91;4209725;29;21630;-65
2022/10/07 07:17:11;;;;;;;19.27;6.50;;;;;;;11.09;83.03;101317.69;4194914;28;23660;-68
2022/10/07 07:19:38;;;;;;;30.83;6.33;;;;;;;11.89;79.12;101321.66;4226443;28;20715;-67
2022/10/07 07:22:07;;;;;;;20.27;6.53;;;;;;;13.10;73.52;101329.66;4216830;28;20282;-64
2022/10/07 07:24:33;;;;;;;21.70;6.50;;;;;;;16.56;62.64;101346.81;4203704;28;20261;-69
2022/10/07 07:27:00;;;;;;;19.70;6.40;;;;;;;20.99;43.44;101378.81;4193758;29;22081;-62
2022/10/07 07:29:28;;;;;;;21.97;5.53;;;;;;;24.87;33.82;101401.91;4199366;28;20300;-63
2022/10/07 07:31:55;;;;;;;32.37;6.27;;;;;;;26.91;29.00;101404.22;4191874;28;21788;-67
2022/10/07 07:34:21;;;;;;;25.80;5.47;;;;;;;28.91;24.94;101414.56;4218024;28;20238;-63
2022/10/07 07:36:52;;;;;;;19.67;6.17;;;;;;;30.75;22.41;101419.56;4204646;28;20228;-66
2022/10/07 07:39:19;;;;;;;18.43;5.27;;;;;;;31.98;20.03;101415.34;4195837;28;20305;-69
2022/10/07 07:41:46;;;;;;;21.80;6.23;;;;;;;32.08;19.83;101415.41;4205527;28;20236;-62
2022/10/07 07:44:15;;;;;;;17.97;5.67;;;;;;;32.69;19.34;101414.94;4251722;28;21580;-66
2022/10/07 07:46:47;;;;;;;17.90;5.30;;;;;;;33.18;17.99;101417.31;4204553;28;20431;-74
2022/10/07 07:49:17;;;;;;;16.17;5.72;;;;;;;33.63;18.13;101413.81;4194730;28;20245;-64
2022/10/07 07:51:44;;;;;;;15.13;5.82;;;;;;;33.98;17.03;101411.28;4185582;28;20310;-68
2022/10/07 07:54:11;;;;;;;10.75;4.78;;;;;;;34.58;16.65;101417.78;4221291;28;22605;-68
2022/10/07 07:56:39;;;;;;;13.13;5.03;;;;;;;34.67;15.72;101418.03;4257604;28;20241;-68
2022/10/07 07:59:07;;;;;;;10.60;4.70;;;;;;;33.30;16.65;101400.50;4256122;28;20254;-66
2022/10/07 08:01:34;;;;;;;10.47;4.30;;;;;;;33.47;17.17;101403.81;4228115;28;20239;-65
2022/10/07 08:04:01;;;;;;;17.88;5.07;;;;;;;32.39;18.00;101399.88;4204273;28;20306;-69
2022/10/07 08:06:30;;;;;;;13.95;3.90;;;;;;;32.76;17.48;101399.81;4219484;28;20325;-67
2022/10/07 08:08:58;;;;;;;16.20;3.60;;;;;;;32.92;17.06;101391.56;4225426;28;20242;-48
2022/10/07 08:11:26;;;;;;;11.55;3.58;;;;;;;31.66;18.49;101380.41;4233882;28;20995;-64
2022/10/07 08:13:55;;;;;;;11.70;3.38;;;;;;;32.29;18.23;101386.06;4230913;28;20313;-51
2022/10/07 08:16:23;;;;;;;17.20;3.72;;;;;;;32.51;18.03;101385.91;4240228;28;20371;-46
2022/10/07 08:18:51;;;;;;;8.77;2.93;;;;;;;32.31;17.89;101386.59;4223952;28;20321;-66
2022/10/07 08:21:20;;;;;;;13.18;3.60;;;;;;;32.62;17.96;101381.28;4238009;28;20242;-63
2022/10/07 08:23:51;;;;;;;14.70;3.63;;;;;;;32.80;17.65;101378.88;4199753;28;20239;-65
2022/10/07 08:26:18;;;;;;;11.93;3.60;;;;;;;33.22;17.36;101380.66;4231373;28;22249;-64
2022/10/07 08:28:47;;;;;;;16.95;3.70;;;;;;;33.29;17.36;101380.34;4210175;28;21167;-65
2022/10/07 08:31:16;;;;;;;10.03;3.00;;;;;;;31.75;18.54;101368.63;4197820;28;25863;-64
2022/10/07 08:33:44;;;;;;;13.43;3.40;;;;;;;31.52;19.01;101361.56;4213035;28;20237;-65
2022/10/07 08:36:14;;;;;;;16.00;3.45;;;;;;;31.45;18.91;101354.63;4205771;28;25437;-64
2022/10/07 08:38:41;;;;;;;10.43;2.83;;;;;;;30.65;19.70;101351.59;4199610;28;20315;-66
2022/10/07 08:41:07;;;;;;;8.97;2.80;;;;;;;28.57;22.29;101341.31;4219522;28;20904;-65
2022/10/07 08:43:43;;;;;;;12.20;3.20;;;;;;;26.10;25.98;101316.94;4203615;28;22591;-65
2022/10/07 08:46:21;;;;;;;12.60;4.33;;;;;;;24.01;30.06;101305.03;4201740;28;20226;-64
2022/10/07 08:48:57;;;;;;;14.73;3.47;;;;;;;22.89;31.84;101288.44;4160296;28;21583;-67
2022/10/07 08:51:28;;;;;;;7.73;2.60;;;;;;;22.18;33.10;101288.81;4160394;29;20286;-63
2022/10/07 08:53:57;;;;;;;11.10;2.70;;;;;;;20.84;35.82;101283.34;4160448;28;20239;-65
2022/10/07 08:56:25;;;;;;;12.40;2.53;;;;;;;20.29;36.62;101269.34;4188193;28;20442;-64
2022/10/07 08:59:23;;;;;;;6.80;2.30;;;;;;;19.81;36.93;101267.03;4190010;28;20270;-64
2022/10/07 09:01:59;;;;;;;6.20;2.17;;;;;;;19.50;37.63;101269.88;4202463;28;21232;-67
2022/10/07 09:04:53;;;;;;;6.50;1.77;;;;;;;19.43;37.38;101262.66;4157651;29;21340;-64
2022/10/07 09:07:31;;;;;;;8.33;1.33;;;;;;;19.28;36.86;101259.94;4181646;28;22726;-64
2022/10/07 09:10:04;;;;;;;5.33;1.60;;;;;;;19.31;37.71;101254.16;4169906;28;20544;-66
2022/10/07 09:12:34;;;;;;;7.27;1.70;;;;;;;19.23;38.43;101256.94;4264849;28;20237;-65
2022/10/07 09:15:01;;;;;;;13.17;1.70;;;;;;;19.15;38.43;101249.75;4153695;29;20227;-67
2022/10/07 09:17:34;;;;;;;4.57;1.53;;;;;;;19.11;38.77;101261.94;4267423;28;20805;-63
2022/10/07 09:20:15;;;;;;;8.83;1.43;;;;;;;18.91;37.81;101257.00;4162733;28;20243;-64
2022/10/07 09:22:44;;;;;;;9.80;1.23;;;;;;;18.37;39.09;101245.34;4179284;28;20287;-67
2022/10/07 09:25:11;;;;;;;9.17;1.40;;;;;;;18.11;40.58;101241.94;4157731;29;22292;-65
2022/10/07 09:27:38;;;;;;;5.47;1.30;;;;;;;17.98;41.32;101235.41;4168425;28;20406;-67
2022/10/07 09:30:05;;;;;;;3.83;1.13;;;;;;;18.01;41.22;101243.16;4195725;28;20261;-65
2022/10/07 09:32:34;;;;;;;7.13;1.20;;;;;;;18.22;40.58;101235.31;4184167;28;21616;-67
2022/10/07 09:35:04;;;;;;;8.63;2.10;;;;;;;18.21;39.40;101230.94;4171020;28;20242;-65
2022/10/07 09:37:32;;;;;;;6.50;1.40;;;;;;;18.04;39.68;101227.47;4169755;28;20242;-66
2022/10/07 09:40:20;;;;;;;9.13;1.60;;;;;;;18.06;40.62;101225.47;4166587;28;20693;-67
2022/10/07 09:42:48;;;;;;;6.73;1.30;;;;;;;17.88;40.60;101224.84;4177912;28;20302;-66
2022/10/07 09:45:21;;;;;;;8.83;1.30;;;;;;;17.71;40.16;101222.19;4167361;29;22111;-67
2022/10/07 09:47:52;;;;;;;6.83;1.53;;;;;;;17.76;39.80;101220.81;4149633;29;22822;-65
2022/10/07 09:50:33;;;;;;;8.10;1.67;;;;;;;17.58;40.17;101208.41;4173190;28;20250;-66
2022/10/07 09:53:00;;;;;;;5.57;1.60;;;;;;;17.60;40.38;101217.16;4191848;28;22899;-64
2022/10/07 09:55:35;;;;;;;6.07;1.70;;;;;;;17.49;40.92;101204.09;4158979;28;20313;-66
2022/10/07 09:58:15;;;;;;;4.10;1.60;;;;;;;17.34;42.59;101201.22;4191023;28;20806;-65
2022/10/07 10:00:47;;;;;;;5.73;1.30;;;;;;;17.44;42.37;101195.66;4166367;29;20251;-65
2022/10/07 10:03:14;;;;;;;7.43;1.67;;;;;;;17.43;42.69;101194.81;4168724;28;21752;-65
2022/10/07 10:06:00;;;;;;;4.00;1.50;;;;;;;17.38;42.51;101199.88;4142155;28;20237;-66
2022/10/07 10:08:32;;;;;;;5.90;1.53;;;;;;;17.48;42.36;101188.94;4187289;28;20234;-65
2022/10/07 10:11:29;;;;;;;6.80;1.67;;;;;;;17.52;41.66;101183.03;4179886;28;20271;-64
2022/10/07 10:13:56;;;;;;;8.73;1.27;;;;;;;17.42;42.27;101178.84;4189071;28;21631;-65
2022/10/07 10:16:35;;;;;;;6.40;1.70;;;;;;;17.40;42.51;101178.19;4186600;28;20389;-67
2022/10/07 10:19:20;;;;;;;3.83;1.33;;;;;;;17.51;42.51;101172.44;4182795;28;21136;-65
2022/10/07 10:21:51;;;;;;;9.83;1.70;;;;;;;17.82;41.55;101177.09;4191229;28;20403;-64
2022/10/07 10:26:24;;;;;;;15.53;1.70;;;;;;;17.65;41.82;101169.06;4182395;28;20925;-65
2022/10/07 10:27:08;;;;;;;6.30;1.00;;;;;;;17.59;42.07;101160.81;4180801;28;20238;-67
2022/10/07 10:29:48;;;;;;;9.53;1.70;;;;;;;17.59;42.02;101160.81;4190265;28;20250;-65
2022/10/07 10:32:32;;;;;;;10.23;1.50;;;;;;;17.66;42.17;101153.72;4172746;28;20416;-66
2022/10/07 10:35:15;;;;;;;6.20;1.40;;;;;;;17.73;42.01;101152.03;4166355;28;20668;-65
2022/10/07 10:38:03;;;;;;;8.67;1.60;;;;;;;17.90;41.46;101153.66;4152291;28;20453;-68
2022/10/07 10:40:37;;;;;;;7.20;1.33;;;;;;;17.95;41.54;101139.66;4169682;28;20732;-64
2022/10/07 10:43:35;;;;;;;7.97;1.40;;;;;;;18.07;41.58;101137.41;4164076;28;20321;-65
2022/10/07 10:46:29;;;;;;;7.50;1.43;;;;;;;18.13;41.02;101142.94;4167785;28;21811;-67
2022/10/07 10:49:05;;;;;;;6.17;1.40;;;;;;;17.99;41.24;101134.78;4207004;28;20433;-66
2022/10/07 10:51:41;;;;;;;9.40;1.60;;;;;;;17.96;41.68;101125.19;4170950;28;21615;-66
2022/10/07 10:54:30;;;;;;;9.33;1.63;;;;;;;17.91;41.20;101119.47;4175734;28;21623;-68
2022/10/07 10:57:10;;;;;;;6.87;1.30;;;;;;;17.69;41.84;101115.69;4191953;28;22263;-64
2022/10/07 10:59:48;;;;;;;10.73;1.20;;;;;;;17.80;40.84;101111.78;4169861;28;20424;-68
2022/10/07 11:02:36;;;;;;;7.80;1.50;;;;;;;17.75;39.97;101111.44;4173768;28;23155;-66
2022/10/07 11:05:41;;;;;;;7.60;1.30;;;;;;;17.76;40.56;101105.91;4178265;28;23675;-68
2022/10/07 11:08:16;;;;;;;3.33;1.30;;;;;;;17.64;41.35;101097.38;4202375;28;21691;-67
2022/10/07 11:10:57;;;;;;;7.10;1.60;;;;;;;17.67;41.07;101088.94;4179895;28;22877;-67
2022/10/07 11:13:26;;;;;;;6.47;1.60;;;;;;;17.70;41.56;101094.00;4193386;28;20254;-66
2022/10/07 11:16:03;;;;;;;5.43;1.70;;;;;;;17.71;41.07;101073.28;4173704;28;20301;-66
2022/10/07 11:19:15;;;;;;;6.83;1.40;;;;;;;17.86;41.24;101073.41;4179918;28;21413;-68
2022/10/07 11:21:56;;;;;;;5.77;1.57;;;;;;;17.99;40.61;101075.53;4163856;29;20239;-65
2022/10/07 11:24:49;;;;;;;9.47;1.77;;;;;;;18.08;40.37;101069.06;4177216;29;20244;-68
2022/10/07 11:27:22;;;;;;;6.93;1.60;;;;;;;18.12;40.78;101057.75;4232906;28;22726;-65
2022/10/07 11:29:57;;;;;;;10.23;1.60;;;;;;;18.24;40.27;101062.69;4170820;28;20243;-66
2022/10/07 11:32:37;;;;;;;8.93;1.50;;;;;;;18.27;40.63;101054.28;4184291;28;21881;-46
2022/10/07 11:35:16;;;;;;;11.80;1.50;;;;;;;18.16;40.40;101046.63;4182619;28;22742;-66
2022/10/07 11:38:03;;;;;;;6.43;1.20;;;;;;;18.09;39.72;101043.81;4202381;28;20357;-66
2022/10/07 11:40:32;;;;;;;5.03;1.23;;;;;;;18.07;40.53;101033.19;4191461;28;20237;-65
2022/10/07 11:43:13;;;;;;;3.70;1.40;;;;;;;17.91;41.55;101020.72;4178995;28;21547;-65